sensor_id;sensor_type;location;lat;lon;timestamp;temperature;humidity
31661;DHT22;18267;52.234;7.444;2022-10-28T00:00:47;16.20;99.90
31661;DHT22;18267;52.234;7.444;2022-10-28T00:03:12;16.20;99.90
31661;DHT22;18267;52.234;7.444;2022-10-28T00:05:38;16.20;99.90
31661;DHT22;18267;52.234;7.444;2022-10-28T00:08:04;16.20;99.90
31661;DHT22;18267;52.234;7.444;2022-10-28T00:10:30;16.20;99.90
31661;DHT22;18267;52.234;7.444;2022-10-28T00:12:55;16.20;99.90
31661;DHT22;18267;52.234;7.444;2022-10-28T00:15:21;16.30;99.90
31661;DHT22;18267;52.234;7.444;2022-10-28T00:17:46;16.20;99.90
31661;DHT22;18267;52.234;7.444;2022-10-28T00:20:12;16.20;99.90
31661;DHT22;18267;52.234;7.444;2022-10-28T00:22:37;16.20;99.90
31661;DHT22;18267;52.234;7.444;2022-10-28T00:25:03;16.20;99.90
31661;DHT22;18267;52.234;7.444;2022-10-28T00:27:29;16.20;99.90
31661;DHT22;18267;52.234;7.444;2022-10-28T00:29:54;16.20;99.90
31661;DHT22;18267;52.234;7.444;2022-10-28T00:32:21;16.20;99.90
31661;DHT22;18267;52.234;7.444;2022-10-28T00:34:46;16.30;99.90
31661;DHT22;18267;52.234;7.444;2022-10-28T00:37:12;16.30;99.90
31661;DHT22;18267;52.234;7.444;2022-10-28T00:39:37;16.30;99.90
31661;DHT22;18267;52.234;7.444;2022-10-28T00:42:03;16.30;99.90
31661;DHT22;18267;52.234;7.444;2022-10-28T00:50:40;16.30;99.90
31661;DHT22;18267;52.234;7.444;2022-10-28T00:53:12;16.30;99.90
31661;DHT22;18267;52.234;7.444;2022-10-28T00:55:39;16.20;99.90
31661;DHT22;18267;52.234;7.444;2022-10-28T00:58:05;16.20;99.90
31661;DHT22;18267;52.234;7.444;2022-10-28T01:00:32;16.20;99.90
31661;DHT22;18267;52.234;7.444;2022-10-28T01:02:59;16.10;99.90
31661;DHT22;18267;52.234;7.444;2022-10-28T01:05:28;16.10;99.90
31661;DHT22;18267;52.234;7.444;2022-10-28T01:08:00;16.00;99.90
31661;DHT22;18267;52.234;7.444;2022-10-28T01:11:09;16.00;99.90
31661;DHT22;18267;52.234;7.444;2022-10-28T01:13:49;16.00;99.90
31661;DHT22;18267;52.234;7.444;2022-10-28T01:16:33;16.10;99.90
31661;DHT22;18267;52.234;7.444;2022-10-28T01:22:50;16.10;99.90
31661;DHT22;18267;52.234;7.444;2022-10-28T01:33:45;16.10;99.90
31661;DHT22;18267;52.234;7.444;2022-10-28T01:41:32;16.10;99.90
31661;DHT22;18267;52.234;7.444;2022-10-28T01:44:09;16.10;99.90
31661;DHT22;18267;52.234;7.444;2022-10-28T01:46:44;16.00;99.90
31661;DHT22;18267;52.234;7.444;2022-10-28T01:49:34;16.10;99.90
31661;DHT22;18267;52.234;7.444;2022-10-28T01:52:07;16.00;99.90
31661;DHT22;18267;52.234;7.444;2022-10-28T01:54:35;16.00;99.90
31661;DHT22;18267;52.234;7.444;2022-10-28T01:57:03;16.00;99.90
31661;DHT22;18267;52.234;7.444;2022-10-28T01:59:30;16.00;99.90
31661;DHT22;18267;52.234;7.444;2022-10-28T02:01:57;15.90;99.90
31661;DHT22;18267;52.234;7.444;2022-10-28T02:04:22;15.90;99.90
31661;DHT22;18267;52.234;7.444;2022-10-28T02:06:54;15.90;99.90
31661;DHT22;18267;52.234;7.444;2022-10-28T02:09:48;15.90;99.90
31661;DHT22;18267;52.234;7.444;2022-10-28T02:12:25;15.90;99.90
31661;DHT22;18267;52.234;7.444;2022-10-28T02:23:23;15.80;99.90
31661;DHT22;18267;52.234;7.444;2022-10-28T02:31:42;15.70;99.90
31661;DHT22;18267;52.234;7.444;2022-10-28T02:34:13;15.70;99.90
31661;DHT22;18267;52.234;7.444;2022-10-28T02:36:44;15.60;99.90
31661;DHT22;18267;52.234;7.444;2022-10-28T02:39:10;15.60;99.90
31661;DHT22;18267;52.234;7.444;2022-10-28T02:41:43;15.50;99.90
31661;DHT22;18267;52.234;7.444;2022-10-28T02:44:13;15.50;99.90
31661;DHT22;18267;52.234;7.444;2022-10-28T02:46:42;15.50;99.90
31661;DHT22;18267;52.234;7.444;2022-10-28T02:49:11;15.60;99.90
31661;DHT22;18267;52.234;7.444;2022-10-28T02:51:44;15.50;99.90
31661;DHT22;18267;52.234;7.444;2022-10-28T02:54:20;15.40;99.90
31661;DHT22;18267;52.234;7.444;2022-10-28T02:59:23;15.40;99.90
31661;DHT22;18267;52.234;7.444;2022-10-28T03:01:50;15.30;99.90
31661;DHT22;18267;52.234;7.444;2022-10-28T03:04:15;15.30;99.90
31661;DHT22;18267;52.234;7.444;2022-10-28T03:06:41;15.30;99.90
31661;DHT22;18267;52.234;7.444;2022-10-28T03:09:06;15.40;99.90
31661;DHT22;18267;52.234;7.444;2022-10-28T03:11:32;15.30;99.90
31661;DHT22;18267;52.234;7.444;2022-10-28T03:13:58;15.30;99.90
31661;DHT22;18267;52.234;7.444;2022-10-28T03:16:24;15.30;99.90
31661;DHT22;18267;52.234;7.444;2022-10-28T03:18:51;15.30;99.90
31661;DHT22;18267;52.234;7.444;2022-10-28T03:21:17;15.30;99.90
31661;DHT22;18267;52.234;7.444;2022-10-28T03:23:42;15.30;99.90
31661;DHT22;18267;52.234;7.444;2022-10-28T03:26:08;15.30;99.90
31661;DHT22;18267;52.234;7.444;2022-10-28T03:28:33;15.30;99.90
31661;DHT22;18267;52.234;7.444;2022-10-28T03:30:59;15.40;99.90
31661;DHT22;18267;52.234;7.444;2022-10-28T03:33:24;15.40;99.90
31661;DHT22;18267;52.234;7.444;2022-10-28T03:35:50;15.30;99.90
31661;DHT22;18267;52.234;7.444;2022-10-28T03:38:15;15.30;99.90
31661;DHT22;18267;52.234;7.444;2022-10-28T03:40:41;15.30;99.90
31661;DHT22;18267;52.234;7.444;2022-10-28T03:43:06;15.30;99.90
31661;DHT22;18267;52.234;7.444;2022-10-28T03:45:32;15.30;99.90
31661;DHT22;18267;52.234;7.444;2022-10-28T03:47:57;15.30;99.90
31661;DHT22;18267;52.234;7.444;2022-10-28T03:50:23;15.30;99.90
31661;DHT22;18267;52.234;7.444;2022-10-28T03:52:50;15.30;99.90
31661;DHT22;18267;52.234;7.444;2022-10-28T03:55:17;15.20;99.90
31661;DHT22;18267;52.234;7.444;2022-10-28T03:57:42;15.30;99.90
31661;DHT22;18267;52.234;7.444;2022-10-28T04:00:08;15.20;99.90
31661;DHT22;18267;52.234;7.444;2022-10-28T04:02:34;15.20;99.90
31661;DHT22;18267;52.234;7.444;2022-10-28T04:04:59;15.20;99.90
31661;DHT22;18267;52.234;7.444;2022-10-28T04:07:25;15.20;99.90
31661;DHT22;18267;52.234;7.444;2022-10-28T04:09:50;15.20;99.90
31661;DHT22;18267;52.234;7.444;2022-10-28T04:12:17;15.10;99.90
31661;DHT22;18267;52.234;7.444;2022-10-28T04:14:43;15.20;99.90
31661;DHT22;18267;52.234;7.444;2022-10-28T04:17:08;15.30;99.90
31661;DHT22;18267;52.234;7.444;2022-10-28T04:19:34;15.20;99.90
31661;DHT22;18267;52.234;7.444;2022-10-28T04:22:00;15.10;99.90
31661;DHT22;18267;52.234;7.444;2022-10-28T04:24:25;15.10;99.90
31661;DHT22;18267;52.234;7.444;2022-10-28T04:26:51;15.10;99.90
31661;DHT22;18267;52.234;7.444;2022-10-28T04:29:17;15.10;99.90
31661;DHT22;18267;52.234;7.444;2022-10-28T04:31:44;15.00;99.90
31661;DHT22;18267;52.234;7.444;2022-10-28T04:34:10;15.00;99.90
31661;DHT22;18267;52.234;7.444;2022-10-28T04:36:36;15.10;99.90
31661;DHT22;18267;52.234;7.444;2022-10-28T04:39:02;15.00;99.90
31661;DHT22;18267;52.234;7.444;2022-10-28T04:41:29;15.00;99.90
31661;DHT22;18267;52.234;7.444;2022-10-28T04:43:54;15.00;99.90
31661;DHT22;18267;52.234;7.444;2022-10-28T04:46:21;15.00;99.90
31661;DHT22;18267;52.234;7.444;2022-10-28T04:48:47;15.00;99.90
31661;DHT22;18267;52.234;7.444;2022-10-28T04:51:13;15.00;99.90
31661;DHT22;18267;52.234;7.444;2022-10-28T04:53:39;15.00;99.90
31661;DHT22;18267;52.234;7.444;2022-10-28T04:56:05;15.00;99.90
31661;DHT22;18267;52.234;7.444;2022-10-28T04:58:31;15.00;99.90
31661;DHT22;18267;52.234;7.444;2022-10-28T05:00:56;14.90;99.90
31661;DHT22;18267;52.234;7.444;2022-10-28T05:03:22;14.80;99.90
31661;DHT22;18267;52.234;7.444;2022-10-28T05:05:48;14.80;99.90
31661;DHT22;18267;52.234;7.444;2022-10-28T05:08:13;14.80;99.90
31661;DHT22;18267;52.234;7.444;2022-10-28T05:10:39;14.90;99.90
31661;DHT22;18267;52.234;7.444;2022-10-28T05:13:04;14.90;99.90
31661;DHT22;18267;52.234;7.444;2022-10-28T05:15:30;14.90;99.90
31661;DHT22;18267;52.234;7.444;2022-10-28T05:17:56;14.90;99.90
31661;DHT22;18267;52.234;7.444;2022-10-28T05:20:21;14.90;99.90
31661;DHT22;18267;52.234;7.444;2022-10-28T05:22:49;14.90;99.90
31661;DHT22;18267;52.234;7.444;2022-10-28T05:25:16;14.80;99.90
31661;DHT22;18267;52.234;7.444;2022-10-28T05:27:42;14.80;99.90
31661;DHT22;18267;52.234;7.444;2022-10-28T05:30:08;14.70;99.90
31661;DHT22;18267;52.234;7.444;2022-10-28T05:32:34;14.80;99.90
31661;DHT22;18267;52.234;7.444;2022-10-28T05:35:00;14.80;99.90
31661;DHT22;18267;52.234;7.444;2022-10-28T05:37:25;14.70;99.90
31661;DHT22;18267;52.234;7.444;2022-10-28T05:39:51;14.70;99.90
31661;DHT22;18267;52.234;7.444;2022-10-28T05:42:17;14.70;99.90
31661;DHT22;18267;52.234;7.444;2022-10-28T05:44:42;14.60;99.90
31661;DHT22;18267;52.234;7.444;2022-10-28T05:47:08;14.60;99.90
31661;DHT22;18267;52.234;7.444;2022-10-28T05:49:33;14.70;99.90
31661;DHT22;18267;52.234;7.444;2022-10-28T05:51:59;14.60;99.90
31661;DHT22;18267;52.234;7.444;2022-10-28T05:54:25;14.70;99.90
31661;DHT22;18267;52.234;7.444;2022-10-28T05:56:50;14.70;99.90
31661;DHT22;18267;52.234;7.444;2022-10-28T05:59:16;14.70;99.90
31661;DHT22;18267;52.234;7.444;2022-10-28T06:01:41;14.70;99.90
31661;DHT22;18267;52.234;7.444;2022-10-28T06:04:07;14.70;99.90
31661;DHT22;18267;52.234;7.444;2022-10-28T06:06:32;14.70;99.90
31661;DHT22;18267;52.234;7.444;2022-10-28T06:08:58;14.60;99.90
31661;DHT22;18267;52.234;7.444;2022-10-28T06:11:24;14.60;99.90
31661;DHT22;18267;52.234;7.444;2022-10-28T06:13:49;14.60;99.90
31661;DHT22;18267;52.234;7.444;2022-10-28T06:16:15;14.60;99.90
31661;DHT22;18267;52.234;7.444;2022-10-28T06:18:40;14.60;99.90
31661;DHT22;18267;52.234;7.444;2022-10-28T06:21:08;14.60;99.90
31661;DHT22;18267;52.234;7.444;2022-10-28T06:23:33;14.60;99.90
31661;DHT22;18267;52.234;7.444;2022-10-28T06:26:00;14.60;99.90
31661;DHT22;18267;52.234;7.444;2022-10-28T06:28:27;14.70;99.90
31661;DHT22;18267;52.234;7.444;2022-10-28T06:30:53;14.70;99.90
31661;DHT22;18267;52.234;7.444;2022-10-28T06:33:18;14.60;99.90
31661;DHT22;18267;52.234;7.444;2022-10-28T06:35:44;14.60;99.90
31661;DHT22;18267;52.234;7.444;2022-10-28T06:38:09;14.60;99.90
31661;DHT22;18267;52.234;7.444;2022-10-28T06:40:35;14.60;99.90
31661;DHT22;18267;52.234;7.444;2022-10-28T06:43:03;14.60;99.90
31661;DHT22;18267;52.234;7.444;2022-10-28T06:45:32;14.60;99.90
31661;DHT22;18267;52.234;7.444;2022-10-28T06:48:03;14.60;99.90
31661;DHT22;18267;52.234;7.444;2022-10-28T06:50:29;14.60;99.90
31661;DHT22;18267;52.234;7.444;2022-10-28T06:52:56;14.70;99.90
31661;DHT22;18267;52.234;7.444;2022-10-28T06:55:22;14.70;99.90
31661;DHT22;18267;52.234;7.444;2022-10-28T06:57:48;14.70;99.90
31661;DHT22;18267;52.234;7.444;2022-10-28T07:00:14;14.80;99.90
31661;DHT22;18267;52.234;7.444;2022-10-28T07:02:39;14.80;99.90
31661;DHT22;18267;52.234;7.444;2022-10-28T07:05:06;14.80;99.90
31661;DHT22;18267;52.234;7.444;2022-10-28T07:07:32;14.80;99.90
31661;DHT22;18267;52.234;7.444;2022-10-28T07:09:58;14.90;99.90
31661;DHT22;18267;52.234;7.444;2022-10-28T07:12:24;14.90;99.90
31661;DHT22;18267;52.234;7.444;2022-10-28T07:14:50;15.00;99.90
31661;DHT22;18267;52.234;7.444;2022-10-28T07:17:16;15.00;99.90
31661;DHT22;18267;52.234;7.444;2022-10-28T07:19:43;15.00;99.90
31661;DHT22;18267;52.234;7.444;2022-10-28T07:22:08;15.00;99.90
31661;DHT22;18267;52.234;7.444;2022-10-28T07:24:34;15.10;99.90
31661;DHT22;18267;52.234;7.444;2022-10-28T07:26:59;15.10;99.90
31661;DHT22;18267;52.234;7.444;2022-10-28T07:29:25;15.10;99.90
31661;DHT22;18267;52.234;7.444;2022-10-28T07:31:53;15.10;99.90
31661;DHT22;18267;52.234;7.444;2022-10-28T07:34:19;15.10;99.90
31661;DHT22;18267;52.234;7.444;2022-10-28T07:36:48;15.20;99.90
31661;DHT22;18267;52.234;7.444;2022-10-28T07:39:16;15.30;99.90
31661;DHT22;18267;52.234;7.444;2022-10-28T07:41:42;15.30;99.90
31661;DHT22;18267;52.234;7.444;2022-10-28T07:44:07;15.40;99.90
31661;DHT22;18267;52.234;7.444;2022-10-28T07:46:33;15.40;99.90
31661;DHT22;18267;52.234;7.444;2022-10-28T07:48:59;15.40;99.90
31661;DHT22;18267;52.234;7.444;2022-10-28T07:51:25;15.40;99.90
31661;DHT22;18267;52.234;7.444;2022-10-28T07:53:50;15.50;99.90
31661;DHT22;18267;52.234;7.444;2022-10-28T07:56:16;15.50;99.90
31661;DHT22;18267;52.234;7.444;2022-10-28T07:58:43;15.50;99.90
31661;DHT22;18267;52.234;7.444;2022-10-28T08:01:12;15.60;99.90
31661;DHT22;18267;52.234;7.444;2022-10-28T08:03:38;15.60;99.90
31661;DHT22;18267;52.234;7.444;2022-10-28T08:06:07;15.60;99.90
31661;DHT22;18267;52.234;7.444;2022-10-28T08:08:32;15.70;99.90
31661;DHT22;18267;52.234;7.444;2022-10-28T08:10:58;15.70;99.90
31661;DHT22;18267;52.234;7.444;2022-10-28T08:13:24;15.80;99.90
31661;DHT22;18267;52.234;7.444;2022-10-28T08:15:53;15.90;99.90
31661;DHT22;18267;52.234;7.444;2022-10-28T08:18:20;16.00;99.90
31661;DHT22;18267;52.234;7.444;2022-10-28T08:20:46;16.10;99.90
31661;DHT22;18267;52.234;7.444;2022-10-28T08:23:12;16.20;99.90
31661;DHT22;18267;52.234;7.444;2022-10-28T08:25:45;16.20;99.90
31661;DHT22;18267;52.234;7.444;2022-10-28T08:28:11;16.30;99.90
31661;DHT22;18267;52.234;7.444;2022-10-28T08:30:36;16.30;99.90
31661;DHT22;18267;52.234;7.444;2022-10-28T08:33:02;16.30;99.90
31661;DHT22;18267;52.234;7.444;2022-10-28T08:35:27;16.40;99.90
31661;DHT22;18267;52.234;7.444;2022-10-28T08:37:53;16.40;99.90
31661;DHT22;18267;52.234;7.444;2022-10-28T08:40:28;16.60;99.90
31661;DHT22;18267;52.234;7.444;2022-10-28T08:43:04;16.60;99.90
31661;DHT22;18267;52.234;7.444;2022-10-28T08:45:45;16.70;99.90
31661;DHT22;18267;52.234;7.444;2022-10-28T08:48:23;16.70;99.90
31661;DHT22;18267;52.234;7.444;2022-10-28T08:50:56;16.80;99.90
31661;DHT22;18267;52.234;7.444;2022-10-28T08:53:27;16.80;99.90
31661;DHT22;18267;52.234;7.444;2022-10-28T08:56:04;16.80;99.90
31661;DHT22;18267;52.234;7.444;2022-10-28T08:58:33;17.00;99.90
31661;DHT22;18267;52.234;7.444;2022-10-28T09:01:00;17.00;99.90
31661;DHT22;18267;52.234;7.444;2022-10-28T09:03:36;17.00;99.90
31661;DHT22;18267;52.234;7.444;2022-10-28T09:06:05;17.10;99.90
31661;DHT22;18267;52.234;7.444;2022-10-28T09:08:43;17.20;99.90
31661;DHT22;18267;52.234;7.444;2022-10-28T09:19:34;17.40;99.90
31661;DHT22;18267;52.234;7.444;2022-10-28T09:29:52;17.80;99.90
31661;DHT22;18267;52.234;7.444;2022-10-28T09:35:10;18.00;99.90
31661;DHT22;18267;52.234;7.444;2022-10-28T09:37:41;17.90;99.90
31661;DHT22;18267;52.234;7.444;2022-10-28T09:40:16;18.00;99.90
31661;DHT22;18267;52.234;7.444;2022-10-28T09:43:07;18.00;99.90
31661;DHT22;18267;52.234;7.444;2022-10-28T09:45:39;18.10;99.90
31661;DHT22;18267;52.234;7.444;2022-10-28T09:48:28;18.20;99.90
31661;DHT22;18267;52.234;7.444;2022-10-28T09:50:56;18.30;99.90
31661;DHT22;18267;52.234;7.444;2022-10-28T09:56:03;18.50;99.90
31661;DHT22;18267;52.234;7.444;2022-10-28T09:58:31;18.60;99.90
31661;DHT22;18267;52.234;7.444;2022-10-28T10:00:58;18.70;99.90
31661;DHT22;18267;52.234;7.444;2022-10-28T10:03:24;18.80;99.90
31661;DHT22;18267;52.234;7.444;2022-10-28T10:05:53;18.90;99.90
31661;DHT22;18267;52.234;7.444;2022-10-28T10:08:20;19.00;99.90
31661;DHT22;18267;52.234;7.444;2022-10-28T10:13:19;19.10;99.90
31661;DHT22;18267;52.234;7.444;2022-10-28T10:15:50;19.10;99.90
31661;DHT22;18267;52.234;7.444;2022-10-28T10:18:26;19.20;99.90
31661;DHT22;18267;52.234;7.444;2022-10-28T10:20:56;19.20;99.90
31661;DHT22;18267;52.234;7.444;2022-10-28T10:23:35;19.30;99.90
31661;DHT22;18267;52.234;7.444;2022-10-28T10:26:03;19.30;99.90
31661;DHT22;18267;52.234;7.444;2022-10-28T10:28:31;19.30;99.90
31661;DHT22;18267;52.234;7.444;2022-10-28T10:30:59;19.40;99.90
31661;DHT22;18267;52.234;7.444;2022-10-28T10:33:34;19.40;99.90
31661;DHT22;18267;52.234;7.444;2022-10-28T10:38:36;19.40;99.90
31661;DHT22;18267;52.234;7.444;2022-10-28T10:41:02;19.40;99.90
31661;DHT22;18267;52.234;7.444;2022-10-28T10:43:32;19.40;99.90
31661;DHT22;18267;52.234;7.444;2022-10-28T10:46:15;19.50;99.90
31661;DHT22;18267;52.234;7.444;2022-10-28T10:48:43;19.50;99.90
31661;DHT22;18267;52.234;7.444;2022-10-28T10:51:21;19.60;99.90
31661;DHT22;18267;52.234;7.444;2022-10-28T10:53:48;19.60;99.90
31661;DHT22;18267;52.234;7.444;2022-10-28T10:56:30;19.70;99.90
31661;DHT22;18267;52.234;7.444;2022-10-28T10:58:59;19.80;99.90
31661;DHT22;18267;52.234;7.444;2022-10-28T11:01:31;19.80;99.90
31661;DHT22;18267;52.234;7.444;2022-10-28T11:04:00;19.80;99.90
31661;DHT22;18267;52.234;7.444;2022-10-28T11:06:40;19.80;99.90
31661;DHT22;18267;52.234;7.444;2022-10-28T11:09:36;19.90;99.90
31661;DHT22;18267;52.234;7.444;2022-10-28T11:12:34;19.90;99.90
31661;DHT22;18267;52.234;7.444;2022-10-28T11:15:26;19.90;99.90
31661;DHT22;18267;52.234;7.444;2022-10-28T11:18:03;19.90;99.90
31661;DHT22;18267;52.234;7.444;2022-10-28T11:26:27;19.80;99.90
31661;DHT22;18267;52.234;7.444;2022-10-28T11:29:07;19.80;99.90
31661;DHT22;18267;52.234;7.444;2022-10-28T11:40:15;20.00;99.90
31661;DHT22;18267;52.234;7.444;2022-10-28T11:45:25;20.10;99.90
31661;DHT22;18267;52.234;7.444;2022-10-28T11:53:26;20.20;99.90
31661;DHT22;18267;52.234;7.444;2022-10-28T11:56:24;20.30;99.90
31661;DHT22;18267;52.234;7.444;2022-10-28T11:58:59;20.30;99.90
31661;DHT22;18267;52.234;7.444;2022-10-28T12:10:23;20.40;99.90
31661;DHT22;18267;52.234;7.444;2022-10-28T12:15:37;20.40;99.90
31661;DHT22;18267;52.234;7.444;2022-10-28T12:18:19;20.40;99.90
31661;DHT22;18267;52.234;7.444;2022-10-28T12:23:47;20.40;99.90
31661;DHT22;18267;52.234;7.444;2022-10-28T12:26:16;20.40;99.90
31661;DHT22;18267;52.234;7.444;2022-10-28T12:31:21;20.50;99.90
31661;DHT22;18267;52.234;7.444;2022-10-28T12:33:52;20.60;99.90
31661;DHT22;18267;52.234;7.444;2022-10-28T12:36:42;20.60;99.90
31661;DHT22;18267;52.234;7.444;2022-10-28T12:41:51;20.60;99.90
31661;DHT22;18267;52.234;7.444;2022-10-28T12:44:21;20.60;99.90
31661;DHT22;18267;52.234;7.444;2022-10-28T12:52:08;20.80;99.90
31661;DHT22;18267;52.234;7.444;2022-10-28T12:57:39;20.80;99.90
31661;DHT22;18267;52.234;7.444;2022-10-28T13:00:15;20.80;99.90
31661;DHT22;18267;52.234;7.444;2022-10-28T13:05:48;20.90;99.90
31661;DHT22;18267;52.234;7.444;2022-10-28T13:19:48;20.70;99.90
31661;DHT22;18267;52.234;7.444;2022-10-28T13:22:29;20.70;99.90
31661;DHT22;18267;52.234;7.444;2022-10-28T13:25:19;20.70;99.90
31661;DHT22;18267;52.234;7.444;2022-10-28T13:27:57;20.70;99.90
31661;DHT22;18267;52.234;7.444;2022-10-28T13:30:23;20.80;99.90
31661;DHT22;18267;52.234;7.444;2022-10-28T13:33:07;20.80;99.90
31661;DHT22;18267;52.234;7.444;2022-10-28T13:35:34;20.80;99.90
31661;DHT22;18267;52.234;7.444;2022-10-28T13:38:01;20.80;99.90
31661;DHT22;18267;52.234;7.444;2022-10-28T13:43:00;20.80;99.90
31661;DHT22;18267;52.234;7.444;2022-10-28T13:45:49;20.80;99.90
31661;DHT22;18267;52.234;7.444;2022-10-28T14:01:53;20.70;99.90
31661;DHT22;18267;52.234;7.444;2022-10-28T14:04:36;20.70;99.90
31661;DHT22;18267;52.234;7.444;2022-10-28T14:09:42;20.70;99.90
31661;DHT22;18267;52.234;7.444;2022-10-28T14:12:23;20.70;99.90
31661;DHT22;18267;52.234;7.444;2022-10-28T14:15:17;20.70;99.90
31661;DHT22;18267;52.234;7.444;2022-10-28T14:17:47;20.70;99.90
31661;DHT22;18267;52.234;7.444;2022-10-28T14:20:35;20.70;99.90
31661;DHT22;18267;52.234;7.444;2022-10-28T14:50:19;20.40;99.90
31661;DHT22;18267;52.234;7.444;2022-10-28T14:52:48;20.40;99.90
31661;DHT22;18267;52.234;7.444;2022-10-28T14:55:25;20.40;99.90
31661;DHT22;18267;52.234;7.444;2022-10-28T14:57:52;20.40;99.90
31661;DHT22;18267;52.234;7.444;2022-10-28T15:00:20;20.40;99.90
31661;DHT22;18267;52.234;7.444;2022-10-28T15:02:46;20.40;99.90
31661;DHT22;18267;52.234;7.444;2022-10-28T15:05:20;20.30;99.90
31661;DHT22;18267;52.234;7.444;2022-10-28T15:07:46;20.30;99.90
31661;DHT22;18267;52.234;7.444;2022-10-28T15:10:25;20.20;99.90
31661;DHT22;18267;52.234;7.444;2022-10-28T15:12:53;20.20;99.90
31661;DHT22;18267;52.234;7.444;2022-10-28T15:15:24;20.10;99.90
31661;DHT22;18267;52.234;7.444;2022-10-28T15:17:50;20.10;99.90
31661;DHT22;18267;52.234;7.444;2022-10-28T15:20:26;20.10;99.90
31661;DHT22;18267;52.234;7.444;2022-10-28T15:23:08;20.00;99.90
31661;DHT22;18267;52.234;7.444;2022-10-28T15:25:34;20.00;99.90
31661;DHT22;18267;52.234;7.444;2022-10-28T15:28:01;19.90;99.90
31661;DHT22;18267;52.234;7.444;2022-10-28T15:30:27;19.90;99.90
31661;DHT22;18267;52.234;7.444;2022-10-28T15:32:54;19.90;99.90
31661;DHT22;18267;52.234;7.444;2022-10-28T15:37:52;19.90;99.90
31661;DHT22;18267;52.234;7.444;2022-10-28T15:43:01;19.80;99.90
31661;DHT22;18267;52.234;7.444;2022-10-28T15:45:29;19.70;99.90
31661;DHT22;18267;52.234;7.444;2022-10-28T15:47:56;19.70;99.90
31661;DHT22;18267;52.234;7.444;2022-10-28T15:50:30;19.70;99.90
31661;DHT22;18267;52.234;7.444;2022-10-28T15:55:36;19.60;99.90
31661;DHT22;18267;52.234;7.444;2022-10-28T16:00:52;19.50;99.90
31661;DHT22;18267;52.234;7.444;2022-10-28T16:03:39;19.50;99.90
31661;DHT22;18267;52.234;7.444;2022-10-28T16:06:18;19.50;99.90
31661;DHT22;18267;52.234;7.444;2022-10-28T16:08:47;19.40;99.90
31661;DHT22;18267;52.234;7.444;2022-10-28T16:11:16;19.40;99.90
31661;DHT22;18267;52.234;7.444;2022-10-28T16:13:47;19.40;99.90
31661;DHT22;18267;52.234;7.444;2022-10-28T16:16:23;19.30;99.90
31661;DHT22;18267;52.234;7.444;2022-10-28T16:19:05;19.30;99.90
31661;DHT22;18267;52.234;7.444;2022-10-28T16:21:32;19.40;99.90
31661;DHT22;18267;52.234;7.444;2022-10-28T16:23:58;19.30;99.90
31661;DHT22;18267;52.234;7.444;2022-10-28T16:26:25;19.30;99.90
31661;DHT22;18267;52.234;7.444;2022-10-28T16:28:51;19.20;99.90
31661;DHT22;18267;52.234;7.444;2022-10-28T16:31:19;19.20;99.90
31661;DHT22;18267;52.234;7.444;2022-10-28T16:33:46;19.20;99.90
31661;DHT22;18267;52.234;7.444;2022-10-28T16:36:13;19.20;99.90
31661;DHT22;18267;52.234;7.444;2022-10-28T16:38:38;19.20;99.90
31661;DHT22;18267;52.234;7.444;2022-10-28T16:41:05;19.10;99.90
31661;DHT22;18267;52.234;7.444;2022-10-28T16:43:34;19.10;99.90
31661;DHT22;18267;52.234;7.444;2022-10-28T16:46:00;19.10;99.90
31661;DHT22;18267;52.234;7.444;2022-10-28T16:48:27;19.10;99.90
31661;DHT22;18267;52.234;7.444;2022-10-28T16:51:01;19.10;99.90
31661;DHT22;18267;52.234;7.444;2022-10-28T16:53:27;19.10;99.90
31661;DHT22;18267;52.234;7.444;2022-10-28T16:55:53;19.10;99.90
31661;DHT22;18267;52.234;7.444;2022-10-28T16:58:29;19.10;99.90
31661;DHT22;18267;52.234;7.444;2022-10-28T17:00:55;19.00;99.90
31661;DHT22;18267;52.234;7.444;2022-10-28T17:03:21;19.00;99.90
31661;DHT22;18267;52.234;7.444;2022-10-28T17:05:48;19.00;99.90
31661;DHT22;18267;52.234;7.444;2022-10-28T17:08:15;19.00;99.90
31661;DHT22;18267;52.234;7.444;2022-10-28T17:10:41;18.90;99.90
31661;DHT22;18267;52.234;7.444;2022-10-28T17:13:14;18.90;99.90
31661;DHT22;18267;52.234;7.444;2022-10-28T17:15:41;18.90;99.90
31661;DHT22;18267;52.234;7.444;2022-10-28T17:18:09;18.90;99.90
31661;DHT22;18267;52.234;7.444;2022-10-28T17:20:35;18.90;99.90
31661;DHT22;18267;52.234;7.444;2022-10-28T17:23:05;18.90;99.90
31661;DHT22;18267;52.234;7.444;2022-10-28T17:25:31;18.80;99.90
31661;DHT22;18267;52.234;7.444;2022-10-28T17:27:58;18.80;99.90
31661;DHT22;18267;52.234;7.444;2022-10-28T17:30:25;18.80;99.90
31661;DHT22;18267;52.234;7.444;2022-10-28T17:32:52;18.70;99.90
31661;DHT22;18267;52.234;7.444;2022-10-28T17:35:21;18.70;99.90
31661;DHT22;18267;52.234;7.444;2022-10-28T17:37:48;18.70;99.90
31661;DHT22;18267;52.234;7.444;2022-10-28T17:40:13;18.70;99.90
31661;DHT22;18267;52.234;7.444;2022-10-28T17:42:39;18.70;99.90
31661;DHT22;18267;52.234;7.444;2022-10-28T17:45:05;18.70;99.90
31661;DHT22;18267;52.234;7.444;2022-10-28T17:47:32;18.60;99.90
31661;DHT22;18267;52.234;7.444;2022-10-28T17:49:58;18.60;99.90
31661;DHT22;18267;52.234;7.444;2022-10-28T17:52:24;18.60;99.90
31661;DHT22;18267;52.234;7.444;2022-10-28T17:54:50;18.70;99.90
31661;DHT22;18267;52.234;7.444;2022-10-28T17:57:16;18.70;99.90
31661;DHT22;18267;52.234;7.444;2022-10-28T17:59:41;18.60;99.90
31661;DHT22;18267;52.234;7.444;2022-10-28T18:02:09;18.50;99.90
31661;DHT22;18267;52.234;7.444;2022-10-28T18:04:36;18.60;99.90
31661;DHT22;18267;52.234;7.444;2022-10-28T18:07:02;18.50;99.90
31661;DHT22;18267;52.234;7.444;2022-10-28T18:09:27;18.60;99.90
31661;DHT22;18267;52.234;7.444;2022-10-28T18:11:57;18.50;99.90
31661;DHT22;18267;52.234;7.444;2022-10-28T18:14:22;18.50;99.90
31661;DHT22;18267;52.234;7.444;2022-10-28T18:16:48;18.50;99.90
31661;DHT22;18267;52.234;7.444;2022-10-28T18:19:16;18.50;99.90
31661;DHT22;18267;52.234;7.444;2022-10-28T18:21:42;18.50;99.90
31661;DHT22;18267;52.234;7.444;2022-10-28T18:24:09;18.40;99.90
31661;DHT22;18267;52.234;7.444;2022-10-28T18:26:36;18.40;99.90
31661;DHT22;18267;52.234;7.444;2022-10-28T18:29:03;18.40;99.90
31661;DHT22;18267;52.234;7.444;2022-10-28T18:31:31;18.40;99.90
31661;DHT22;18267;52.234;7.444;2022-10-28T18:33:57;18.40;99.90
31661;DHT22;18267;52.234;7.444;2022-10-28T18:36:25;18.40;99.90
31661;DHT22;18267;52.234;7.444;2022-10-28T18:38:52;18.30;99.90
31661;DHT22;18267;52.234;7.444;2022-10-28T18:41:22;18.30;99.90
31661;DHT22;18267;52.234;7.444;2022-10-28T18:43:56;18.30;99.90
31661;DHT22;18267;52.234;7.444;2022-10-28T18:46:22;18.30;99.90
31661;DHT22;18267;52.234;7.444;2022-10-28T18:48:49;18.20;99.90
31661;DHT22;18267;52.234;7.444;2022-10-28T18:51:16;18.20;99.90